createdAt,value
2023-05-12T00:00:14.941Z,15.10
2023-05-12T00:02:42.582Z,15.17
2023-05-12T00:05:10.469Z,15.17
2023-05-12T00:07:37.961Z,15.18
2023-05-12T00:10:06.165Z,15.14
2023-05-12T00:12:34.874Z,15.13
2023-05-12T00:15:02.394Z,15.11
2023-05-12T00:17:30.018Z,14.98
2023-05-12T00:19:57.477Z,14.83
2023-05-12T00:22:26.680Z,14.90
2023-05-12T00:24:54.085Z,14.99
2023-05-12T00:27:21.548Z,14.49
2023-05-12T00:29:50.315Z,14.27
2023-05-12T00:32:17.691Z,14.69
2023-05-12T00:34:45.074Z,14.58
2023-05-12T00:37:12.489Z,14.74
2023-05-12T00:39:39.871Z,14.51
2023-05-12T00:42:07.375Z,14.54
2023-05-12T00:44:34.940Z,14.59
2023-05-12T00:47:04.397Z,14.81
2023-05-12T00:49:32.586Z,14.87
2023-05-12T00:52:00.229Z,14.95
2023-05-12T00:54:27.837Z,14.65
2023-05-12T00:56:55.625Z,14.68
2023-05-12T00:59:23.083Z,14.77
2023-05-12T01:01:51.086Z,14.79
2023-05-12T01:04:19.812Z,14.80
2023-05-12T01:06:54.481Z,14.83
2023-05-12T01:09:22.239Z,14.87
2023-05-12T01:11:49.646Z,14.94
2023-05-12T01:14:17.047Z,14.85
2023-05-12T01:16:52.424Z,14.81
2023-05-12T01:19:40.599Z,14.89
2023-05-12T01:22:08.704Z,14.74
2023-05-12T01:24:46.313Z,14.83
2023-05-12T01:27:16.548Z,14.87
2023-05-12T01:29:45.347Z,14.51
2023-05-12T01:32:13.857Z,14.56
2023-05-12T01:34:42.371Z,14.70
2023-05-12T01:37:10.100Z,14.76
2023-05-12T01:39:38.290Z,14.76
2023-05-12T01:42:06.428Z,14.79
2023-05-12T01:44:35.480Z,14.54
2023-05-12T01:47:02.972Z,14.68
2023-05-12T01:49:30.739Z,14.72
2023-05-12T01:51:58.136Z,14.73
2023-05-12T01:54:25.534Z,14.46
2023-05-12T01:56:52.921Z,14.49
2023-05-12T01:59:20.362Z,14.57
2023-05-12T02:01:49.170Z,14.55
2023-05-12T02:04:16.725Z,14.44
2023-05-12T02:06:44.128Z,14.53
2023-05-12T02:09:11.525Z,14.63
2023-05-12T02:11:38.923Z,14.56
2023-05-12T02:14:06.590Z,14.52
2023-05-12T02:16:34.077Z,14.55
2023-05-12T02:19:02.881Z,14.59
2023-05-12T02:21:31.222Z,14.29
2023-05-12T02:23:58.660Z,14.32
2023-05-12T02:26:26.041Z,14.43
2023-05-12T02:28:53.545Z,14.27
2023-05-12T02:31:21.135Z,14.17
2023-05-12T02:33:49.583Z,14.17
2023-05-12T02:36:18.382Z,14.31
2023-05-12T02:38:45.935Z,14.06
2023-05-12T02:41:13.323Z,14.10
2023-05-12T02:43:40.726Z,14.01
2023-05-12T02:46:08.418Z,14.20
2023-05-12T02:48:35.802Z,14.22
2023-05-12T02:51:03.234Z,14.22
2023-05-12T02:53:31.942Z,14.14
2023-05-12T02:55:59.358Z,14.10
2023-05-12T02:58:26.806Z,13.83
2023-05-12T03:01:06.637Z,14.05
2023-05-12T03:03:37.294Z,14.06
2023-05-12T03:06:05.995Z,14.04
2023-05-12T03:08:34.802Z,13.86
2023-05-12T03:11:02.198Z,13.73
2023-05-12T03:13:29.580Z,13.88
2023-05-12T03:16:01.028Z,13.91
2023-05-12T03:18:28.876Z,13.75
2023-05-12T03:20:56.361Z,13.82
2023-05-12T03:23:23.785Z,13.81
2023-05-12T03:25:52.750Z,13.82
2023-05-12T03:28:20.122Z,13.81
2023-05-12T03:30:47.502Z,13.88
2023-05-12T03:33:14.921Z,13.92
2023-05-12T03:35:42.476Z,13.93
2023-05-12T03:38:09.878Z,13.91
2023-05-12T03:40:37.282Z,13.93
2023-05-12T03:43:06.259Z,13.84
2023-05-12T03:45:33.619Z,13.79
2023-05-12T03:48:01.370Z,13.81
2023-05-12T03:50:28.800Z,13.90
2023-05-12T03:52:56.778Z,13.84
2023-05-12T03:55:24.197Z,13.77
2023-05-12T03:57:51.721Z,13.87
2023-05-12T04:00:21.418Z,13.90
2023-05-12T04:02:49.063Z,13.91
2023-05-12T04:05:16.765Z,14.00
2023-05-12T04:07:44.168Z,14.02
2023-05-12T04:10:11.643Z,14.11
2023-05-12T04:12:39.203Z,14.11
2023-05-12T04:15:07.964Z,14.22
2023-05-12T04:17:36.820Z,14.22
2023-05-12T04:20:04.686Z,14.27
2023-05-12T04:22:32.076Z,14.32
2023-05-12T04:24:59.489Z,14.29
2023-05-12T04:27:26.860Z,14.51
2023-05-12T04:29:54.429Z,14.56
2023-05-12T04:32:21.903Z,14.69
2023-05-12T04:34:51.566Z,14.85
2023-05-12T04:37:18.950Z,15.02
2023-05-12T04:39:46.351Z,15.16
2023-05-12T04:42:13.720Z,15.60
2023-05-12T04:44:41.134Z,15.56
2023-05-12T04:47:08.541Z,15.71
2023-05-12T04:49:35.963Z,15.37
2023-05-12T04:52:05.493Z,15.54
2023-05-12T04:54:33.162Z,15.61
2023-05-12T04:57:00.559Z,15.88
2023-05-12T04:59:28.278Z,15.85
2023-05-12T05:01:55.997Z,15.80
2023-05-12T05:04:23.491Z,16.14
2023-05-12T05:06:51.013Z,16.12
2023-05-12T05:09:19.951Z,16.13
2023-05-12T05:11:47.889Z,16.67
2023-05-12T05:14:15.589Z,16.17
2023-05-12T05:16:43.092Z,16.60
2023-05-12T05:19:19.573Z,17.31
2023-05-12T05:21:49.929Z,17.08
2023-05-12T05:24:23.202Z,17.67
2023-05-12T05:26:50.759Z,17.84
2023-05-12T05:29:18.152Z,17.83
2023-05-12T05:31:45.802Z,18.27
2023-05-12T05:34:13.442Z,18.28
2023-05-12T05:36:40.844Z,18.06
2023-05-12T05:39:10.249Z,17.89
2023-05-12T05:41:39.116Z,16.92
2023-05-12T05:44:06.910Z,17.09
2023-05-12T05:46:34.377Z,16.80
2023-05-12T05:49:01.890Z,17.67
2023-05-12T05:51:29.292Z,18.00
2023-05-12T05:53:56.665Z,18.24
2023-05-12T05:56:24.162Z,18.04
2023-05-12T05:58:53.186Z,18.39
2023-05-12T06:01:20.583Z,18.27
2023-05-12T06:03:48.088Z,18.10
2023-05-12T06:06:15.941Z,18.08
2023-05-12T06:08:43.296Z,17.90
2023-05-12T06:11:10.657Z,18.37
2023-05-12T06:13:38.044Z,18.39
2023-05-12T06:16:07.128Z,18.84
2023-05-12T06:18:37.896Z,19.07
2023-05-12T06:21:06.300Z,19.29
2023-05-12T06:23:33.825Z,19.11
2023-05-12T06:26:01.231Z,19.40
2023-05-12T06:28:28.620Z,19.56
2023-05-12T06:30:56.373Z,19.05
2023-05-12T06:33:25.054Z,19.22
2023-05-12T06:35:52.456Z,19.64
2023-05-12T06:38:19.842Z,19.61
2023-05-12T06:40:47.319Z,18.49
2023-05-12T06:43:14.834Z,18.66
2023-05-12T06:45:42.213Z,19.11
2023-05-12T06:48:10.277Z,19.59
2023-05-12T06:50:39.063Z,19.56
2023-05-12T06:53:08.043Z,20.02
2023-05-12T06:55:35.530Z,18.74
2023-05-12T06:58:03.226Z,19.14
2023-05-12T07:00:30.650Z,19.18
2023-05-12T07:02:58.309Z,20.01
2023-05-12T07:05:25.835Z,20.12
2023-05-12T07:07:54.591Z,20.39
2023-05-12T07:10:22.084Z,20.76
2023-05-12T07:12:49.521Z,19.98
2023-05-12T07:15:16.909Z,20.42
2023-05-12T07:17:44.352Z,19.92
2023-05-12T07:20:12.769Z,19.90
2023-05-12T07:22:40.229Z,20.58
2023-05-12T07:25:09.748Z,19.39
2023-05-12T07:27:37.210Z,19.45
2023-05-12T07:30:05.664Z,19.69
2023-05-12T07:32:33.323Z,20.16
2023-05-12T07:35:00.812Z,20.58
2023-05-12T07:37:28.409Z,20.32
2023-05-12T07:39:55.961Z,20.74
2023-05-12T07:42:27.809Z,21.43
2023-05-12T07:44:55.260Z,21.36
2023-05-12T07:47:22.692Z,21.78
2023-05-12T07:49:50.082Z,21.90
2023-05-12T07:52:17.575Z,21.86
2023-05-12T07:54:45.003Z,22.14
2023-05-12T07:57:12.393Z,22.52
2023-05-12T07:59:41.211Z,22.45
2023-05-12T08:02:08.701Z,22.59
2023-05-12T08:04:36.156Z,22.42
2023-05-12T08:07:03.594Z,22.92
2023-05-12T08:09:31.001Z,21.70
2023-05-12T08:11:58.348Z,21.56
2023-05-12T08:14:25.807Z,22.34
2023-05-12T08:16:54.630Z,22.18
2023-05-12T08:21:53.574Z,22.68
2023-05-12T08:24:21.846Z,22.44
2023-05-12T08:26:49.424Z,22.85
2023-05-12T08:29:17.526Z,22.98
2023-05-12T08:31:44.994Z,23.13
2023-05-12T08:34:13.704Z,22.56
2023-05-12T08:36:41.169Z,22.75
2023-05-12T08:39:10.090Z,23.03
2023-05-12T08:41:45.950Z,22.77
2023-05-12T08:44:13.685Z,22.31
2023-05-12T08:46:41.836Z,22.07
2023-05-12T08:49:15.716Z,22.54
2023-05-12T08:51:54.396Z,22.97
2023-05-12T08:54:25.911Z,23.56
2023-05-12T08:59:25.427Z,22.81
2023-05-12T09:01:55.893Z,22.09
2023-05-12T09:04:23.407Z,22.89
2023-05-12T09:06:55.569Z,22.89
2023-05-12T09:09:24.705Z,22.97
2023-05-12T09:11:57.347Z,23.63
2023-05-12T09:14:26.725Z,22.80
2023-05-12T09:16:59.452Z,22.89
2023-05-12T09:19:27.135Z,22.97
2023-05-12T09:21:56.212Z,21.90
2023-05-12T09:24:35.163Z,23.37
2023-05-12T09:27:03.809Z,22.86
2023-05-12T09:29:35.903Z,23.31
2023-05-12T09:32:09.802Z,22.10
2023-05-12T09:34:40.595Z,22.97
2023-05-12T09:37:09.318Z,23.98
2023-05-12T09:39:37.214Z,23.47
2023-05-12T09:42:05.099Z,23.41
2023-05-12T09:44:33.277Z,22.47
2023-05-12T09:47:06.944Z,22.77
2023-05-12T09:49:34.347Z,23.35
2023-05-12T09:52:01.738Z,22.85
2023-05-12T09:54:32.147Z,23.42
2023-05-12T09:57:01.448Z,23.67
2023-05-12T09:59:32.757Z,23.46
2023-05-12T10:02:02.283Z,23.69
2023-05-12T10:04:33.319Z,23.94
2023-05-12T10:07:01.208Z,24.72
2023-05-12T10:09:36.379Z,24.52
2023-05-12T10:12:04.481Z,24.33
2023-05-12T10:14:32.788Z,23.49
2023-05-12T10:17:01.486Z,24.16
2023-05-12T10:19:31.130Z,25.93
2023-05-12T10:21:59.194Z,25.14
2023-05-12T10:24:27.950Z,25.37
2023-05-12T10:26:57.926Z,25.24
2023-05-12T10:29:29.503Z,24.10
2023-05-12T10:31:57.448Z,24.23
2023-05-12T10:34:31.326Z,24.13
2023-05-12T10:36:59.632Z,24.59
2023-05-12T10:39:29.292Z,24.09
2023-05-12T10:42:06.357Z,24.70
2023-05-12T10:44:33.771Z,24.65
2023-05-12T10:47:01.159Z,24.66
2023-05-12T10:49:37.516Z,24.88
2023-05-12T10:52:05.169Z,24.68
2023-05-12T10:54:41.334Z,25.02
2023-05-12T10:57:19.012Z,25.22
2023-05-12T10:59:51.245Z,24.74
2023-05-12T11:02:21.200Z,24.78
2023-05-12T11:04:51.477Z,25.65
2023-05-12T11:07:24.474Z,23.76
2023-05-12T11:09:57.541Z,23.15
2023-05-12T11:12:32.391Z,23.86
2023-05-12T11:15:01.308Z,23.80
2023-05-12T11:17:28.894Z,24.36
2023-05-12T11:19:56.759Z,23.81
2023-05-12T11:22:25.018Z,23.78
2023-05-12T11:24:53.419Z,23.28
2023-05-12T11:27:23.964Z,22.98
2023-05-12T11:30:00.560Z,23.12
2023-05-12T11:32:28.269Z,22.90
2023-05-12T11:34:56.172Z,23.15
2023-05-12T11:37:24.021Z,23.18
2023-05-12T11:39:52.964Z,23.22
2023-05-12T11:42:22.802Z,22.48
2023-05-12T11:44:51.820Z,22.81
2023-05-12T11:47:20.869Z,23.41
2023-05-12T11:49:49.955Z,24.07
2023-05-12T11:52:18.357Z,23.63
2023-05-12T11:54:49.997Z,23.83
2023-05-12T11:57:25.989Z,22.72
2023-05-12T11:59:58.670Z,22.45
2023-05-12T12:02:27.544Z,22.80
2023-05-12T12:04:55.229Z,23.06
2023-05-12T12:07:30.843Z,22.25
2023-05-12T12:09:58.410Z,23.28
2023-05-12T12:12:26.026Z,22.44
2023-05-12T12:14:54.092Z,22.67
2023-05-12T12:17:28.438Z,22.82
2023-05-12T12:19:57.256Z,22.12
2023-05-12T12:22:24.752Z,21.98
2023-05-12T12:24:52.185Z,22.04
2023-05-12T12:27:19.654Z,22.53
2023-05-12T12:29:47.064Z,22.64
2023-05-12T12:32:14.438Z,21.73
2023-05-12T12:34:42.403Z,22.15
2023-05-12T12:37:11.205Z,22.15
2023-05-12T12:39:38.658Z,22.67
2023-05-12T12:42:06.554Z,22.00
2023-05-12T12:44:33.989Z,22.48
2023-05-12T12:47:01.411Z,22.54
2023-05-12T12:49:28.895Z,21.67
2023-05-12T12:51:56.760Z,22.29
2023-05-12T12:54:27.274Z,22.36
2023-05-12T12:56:55.485Z,21.98
2023-05-12T12:59:23.271Z,22.16
2023-05-12T13:01:50.764Z,22.42
2023-05-12T13:04:22.376Z,22.59
2023-05-12T13:06:49.886Z,23.20
2023-05-12T13:09:19.980Z,22.97
2023-05-12T13:11:49.036Z,22.74
2023-05-12T13:14:16.961Z,22.75
2023-05-12T13:16:44.362Z,22.73
2023-05-12T13:19:12.014Z,22.77
2023-05-12T13:21:39.497Z,22.50
2023-05-12T13:24:06.989Z,22.15
2023-05-12T13:26:34.458Z,23.32
2023-05-12T13:29:04.213Z,22.31
2023-05-12T13:31:31.698Z,23.05
2023-05-12T13:33:59.103Z,21.71
2023-05-12T13:36:26.795Z,22.22
2023-05-12T13:38:54.228Z,22.43
2023-05-12T13:41:21.652Z,22.02
2023-05-12T13:43:49.064Z,21.93
2023-05-12T13:46:17.761Z,21.68
2023-05-12T13:48:45.491Z,21.84
2023-05-12T13:51:12.910Z,22.58
2023-05-12T13:53:40.440Z,22.34
2023-05-12T13:56:08.820Z,22.40
2023-05-12T13:58:36.186Z,22.06
2023-05-12T14:01:03.706Z,22.30
2023-05-12T14:03:32.398Z,22.64
2023-05-12T14:05:59.794Z,22.54
2023-05-12T14:08:27.157Z,22.85
2023-05-12T14:10:54.835Z,22.28
2023-05-12T14:13:22.275Z,21.67
2023-05-12T14:15:50.339Z,22.14
2023-05-12T14:18:17.875Z,20.15
2023-05-12T14:20:47.022Z,19.35
2023-05-12T14:23:14.428Z,19.18
2023-05-12T14:25:41.972Z,18.41
2023-05-12T14:28:09.527Z,18.90
2023-05-12T14:30:37.432Z,18.96
2023-05-12T14:33:05.309Z,17.18
2023-05-12T14:35:32.770Z,16.79
2023-05-12T14:38:01.626Z,17.20
2023-05-12T14:40:29.076Z,16.95
2023-05-12T14:42:56.613Z,17.64
2023-05-12T14:45:25.701Z,18.55
2023-05-12T14:47:53.290Z,18.99
2023-05-12T14:50:21.161Z,18.44
2023-05-12T14:52:48.692Z,18.61
2023-05-12T14:55:18.156Z,18.37
2023-05-12T14:57:46.289Z,18.13
2023-05-12T15:00:16.019Z,18.38
2023-05-12T15:02:44.861Z,18.47
2023-05-12T15:05:13.675Z,19.41
2023-05-12T15:07:41.219Z,19.63
2023-05-12T15:10:09.288Z,20.17
2023-05-12T15:12:38.000Z,20.39
2023-05-12T15:15:08.443Z,20.04
2023-05-12T15:17:36.240Z,19.97
2023-05-12T15:20:04.438Z,20.41
2023-05-12T15:22:32.237Z,20.50
2023-05-12T15:25:00.202Z,20.52
2023-05-12T15:27:27.702Z,20.85
2023-05-12T15:29:56.445Z,20.83
2023-05-12T15:32:23.879Z,20.94
2023-05-12T15:34:51.698Z,20.48
2023-05-12T15:37:19.095Z,20.85
2023-05-12T15:39:46.588Z,20.75
2023-05-12T15:42:14.664Z,20.96
2023-05-12T15:44:46.850Z,20.90
2023-05-12T15:47:15.802Z,21.22
2023-05-12T15:49:43.199Z,21.34
2023-05-12T15:52:11.417Z,21.36
2023-05-12T15:54:39.374Z,21.31
2023-05-12T15:57:07.308Z,21.05
2023-05-12T15:59:34.871Z,21.02
2023-05-12T16:02:02.300Z,20.85
2023-05-12T16:04:31.026Z,20.69
2023-05-12T16:06:58.478Z,20.35
2023-05-12T16:09:26.493Z,19.93
2023-05-12T16:11:54.766Z,19.26
2023-05-12T16:14:22.756Z,19.70
2023-05-12T16:16:51.466Z,19.74
2023-05-12T16:19:19.004Z,18.54
2023-05-12T16:21:47.743Z,19.02
2023-05-12T16:24:15.123Z,18.89
2023-05-12T16:26:42.500Z,19.27
2023-05-12T16:29:10.015Z,19.44
2023-05-12T16:31:37.731Z,19.45
2023-05-12T16:34:05.314Z,19.50
2023-05-12T16:36:32.746Z,19.51
2023-05-12T16:39:01.649Z,19.56
2023-05-12T16:41:29.176Z,19.80
2023-05-12T16:43:56.657Z,19.72
2023-05-12T16:46:24.287Z,19.52
2023-05-12T16:48:51.731Z,19.09
2023-05-12T16:51:19.146Z,19.23
2023-05-12T16:53:46.544Z,18.92
2023-05-12T16:56:17.102Z,18.86
2023-05-12T16:58:44.527Z,19.16
2023-05-12T17:01:11.993Z,19.13
2023-05-12T17:03:39.737Z,19.16
2023-05-12T17:06:07.511Z,19.11
2023-05-12T17:08:36.267Z,18.88
2023-05-12T17:11:03.960Z,18.78
2023-05-12T17:13:36.357Z,18.72
2023-05-12T17:16:04.247Z,18.41
2023-05-12T17:18:31.783Z,18.32
2023-05-12T17:20:59.451Z,18.40
2023-05-12T17:23:28.113Z,18.52
2023-05-12T17:25:55.494Z,18.67
2023-05-12T17:28:22.905Z,18.57
2023-05-12T17:30:51.605Z,18.08
2023-05-12T17:33:20.122Z,18.22
2023-05-12T17:36:00.487Z,18.21
2023-05-12T17:38:34.940Z,18.24
2023-05-12T17:41:02.389Z,18.35
2023-05-12T17:43:30.383Z,18.10
2023-05-12T17:46:00.392Z,18.15
2023-05-12T17:48:28.016Z,18.11
2023-05-12T17:50:55.753Z,18.24
2023-05-12T17:53:23.418Z,18.31
2023-05-12T17:55:50.794Z,18.07
2023-05-12T17:58:18.401Z,18.12
2023-05-12T18:00:45.799Z,17.69
2023-05-12T18:03:14.653Z,17.76
2023-05-12T18:05:42.243Z,17.97
2023-05-12T18:08:09.707Z,17.98
2023-05-12T18:10:37.294Z,17.85
2023-05-12T18:13:05.080Z,17.86
2023-05-12T18:15:32.521Z,17.90
2023-05-12T18:18:00.522Z,17.95
2023-05-12T18:20:29.492Z,17.87
2023-05-12T18:22:56.846Z,17.68
2023-05-12T18:25:24.296Z,17.73
2023-05-12T18:27:52.095Z,17.88
2023-05-12T18:30:19.723Z,17.86
2023-05-12T18:32:47.191Z,17.76
2023-05-12T18:35:14.631Z,17.52
2023-05-12T18:37:45.101Z,17.50
2023-05-12T18:40:13.118Z,17.51
2023-05-12T18:42:40.513Z,17.45
2023-05-12T18:45:08.821Z,17.44
2023-05-12T18:47:36.392Z,17.39
2023-05-12T18:50:04.202Z,17.24
2023-05-12T18:52:32.288Z,17.21
2023-05-12T18:55:01.034Z,17.12
2023-05-12T18:57:28.456Z,17.10
2023-05-12T18:59:55.870Z,17.02
2023-05-12T19:02:23.355Z,16.93
2023-05-12T19:04:50.905Z,16.62
2023-05-12T19:07:18.348Z,16.64
2023-05-12T19:09:45.795Z,16.54
2023-05-12T19:12:14.540Z,16.51
2023-05-12T19:14:43.062Z,16.51
2023-05-12T19:17:10.843Z,16.23
2023-05-12T19:19:38.248Z,16.33
2023-05-12T19:22:06.691Z,16.36
2023-05-12T19:24:35.338Z,16.37
2023-05-12T19:27:02.750Z,16.32
2023-05-12T19:29:31.576Z,16.11
2023-05-12T19:31:59.079Z,16.17
2023-05-12T19:34:30.060Z,16.18
2023-05-12T19:37:00.723Z,16.21
2023-05-12T19:39:28.204Z,16.19
2023-05-12T19:41:55.711Z,16.10
2023-05-12T19:44:23.467Z,15.74
2023-05-12T19:46:52.303Z,15.80
2023-05-12T19:49:19.735Z,15.72
2023-05-12T19:51:48.616Z,15.60
2023-05-12T19:54:16.137Z,15.72
2023-05-12T19:56:43.571Z,15.71
2023-05-12T19:59:11.280Z,15.13
2023-05-12T20:01:38.846Z,15.37
2023-05-12T20:04:07.839Z,15.28
2023-05-12T20:06:35.716Z,15.31
2023-05-12T20:09:03.220Z,15.20
2023-05-12T20:11:34.067Z,15.06
2023-05-12T20:14:01.469Z,14.84
2023-05-12T20:16:28.956Z,14.71
2023-05-12T20:18:56.771Z,14.84
2023-05-12T20:21:25.589Z,14.64
2023-05-12T20:23:57.084Z,14.26
2023-05-12T20:26:24.586Z,14.36
2023-05-12T20:28:52.103Z,14.40
2023-05-12T20:31:20.049Z,13.60
2023-05-12T20:33:47.507Z,13.77
2023-05-12T20:36:14.855Z,14.11
2023-05-12T20:38:43.539Z,14.25
2023-05-12T20:41:11.808Z,14.08
2023-05-12T20:43:40.960Z,14.12
2023-05-12T20:46:08.662Z,14.26
2023-05-12T20:48:36.384Z,14.28
2023-05-12T20:51:11.089Z,14.30
2023-05-12T20:53:38.455Z,14.01
2023-05-12T20:56:08.600Z,13.89
2023-05-12T20:58:36.451Z,13.97
2023-05-12T21:01:04.153Z,13.88
2023-05-12T21:03:31.722Z,14.11
2023-05-12T21:05:59.437Z,13.98
2023-05-12T21:08:26.870Z,13.95
2023-05-12T21:10:54.463Z,13.96
2023-05-12T21:13:23.195Z,13.78
2023-05-12T21:15:51.333Z,13.83
2023-05-12T21:18:18.713Z,13.73
2023-05-12T21:20:46.103Z,13.37
2023-05-12T21:23:13.678Z,13.13
2023-05-12T21:25:41.098Z,12.98
2023-05-12T21:28:08.558Z,12.60
2023-05-12T21:30:37.397Z,13.06
2023-05-12T21:33:05.507Z,13.23
2023-05-12T21:35:32.960Z,12.78
2023-05-12T21:38:00.435Z,12.28
2023-05-12T21:40:29.071Z,12.51
2023-05-12T21:42:56.468Z,12.63
2023-05-12T21:45:24.071Z,12.60
2023-05-12T21:47:53.204Z,12.87
2023-05-12T21:50:21.713Z,12.82
2023-05-12T21:52:49.976Z,12.93
2023-05-12T21:55:17.446Z,12.97
2023-05-12T21:57:44.818Z,13.02
2023-05-12T22:00:14.524Z,13.06
2023-05-12T22:02:42.083Z,12.76
2023-05-12T22:05:10.990Z,12.81
2023-05-12T22:07:38.377Z,12.57
2023-05-12T22:10:06.604Z,12.52
2023-05-12T22:12:34.320Z,12.50
2023-05-12T22:15:01.769Z,12.17
2023-05-12T22:17:29.315Z,12.50
2023-05-12T22:19:56.869Z,12.65
2023-05-12T22:22:25.629Z,12.66
2023-05-12T22:24:53.077Z,12.43
2023-05-12T22:27:22.341Z,12.29
2023-05-12T22:29:50.019Z,12.26
2023-05-12T22:32:17.447Z,12.38
2023-05-12T22:34:44.843Z,12.41
2023-05-12T22:37:12.284Z,12.41
2023-05-12T22:39:40.984Z,12.22
2023-05-12T22:42:08.740Z,12.19
2023-05-12T22:44:36.242Z,12.25
2023-05-12T22:47:03.711Z,12.19
2023-05-12T22:49:31.131Z,12.17
2023-05-12T22:51:59.017Z,12.05
2023-05-12T22:54:26.423Z,12.04
2023-05-12T22:56:55.248Z,12.12
2023-05-12T22:59:22.626Z,12.19
2023-05-12T23:01:50.126Z,12.18
2023-05-12T23:04:17.627Z,11.85
2023-05-12T23:06:45.369Z,11.65
2023-05-12T23:09:12.792Z,11.65
2023-05-12T23:11:40.288Z,11.45
2023-05-12T23:14:11.355Z,11.47
2023-05-12T23:16:38.800Z,11.49
2023-05-12T23:19:06.241Z,11.60
2023-05-12T23:21:33.782Z,11.32
2023-05-12T23:24:01.254Z,10.97
2023-05-12T23:26:28.668Z,11.29
2023-05-12T23:28:56.130Z,11.42
2023-05-12T23:31:25.304Z,11.47
2023-05-12T23:33:52.865Z,11.18
2023-05-12T23:36:20.338Z,11.41
2023-05-12T23:38:50.703Z,11.50
2023-05-12T23:41:18.045Z,11.59
2023-05-12T23:43:45.509Z,11.52
2023-05-12T23:46:13.023Z,11.42
2023-05-12T23:48:41.770Z,11.48
2023-05-12T23:51:09.189Z,11.62
2023-05-12T23:53:36.565Z,11.49
2023-05-12T23:56:03.947Z,11.37
2023-05-12T23:58:31.452Z,11.54
